Time;durP1;ratioP1;P1;durP2;ratioP2;P2;SDS_P1;SDS_P2;PMS_P1;PMS_P2;Temp;Humidity;BMP_temperature;BMP_pressure;BME280_temperature;BME280_humidity;BME280_pressure;Samples;Min_cycle;Max_cycle;Signal;HPM_P1;HPM_P2
2022/10/25 00:00:54;;;;;;;13.18;2.08;;;12.20;99.90;;;;;;4671747;28;10000201;-79
2022/10/25 00:03:20;;;;;;;11.45;1.70;;;12.20;99.90;;;;;;5023547;28;20040;-80
2022/10/25 00:05:45;;;;;;;11.95;1.88;;;12.20;99.90;;;;;;5024427;28;20449;-79
2022/10/25 00:08:11;;;;;;;14.23;1.92;;;12.20;99.90;;;;;;5021647;28;21021;-79
2022/10/25 00:10:37;;;;;;;14.50;1.70;;;12.20;99.90;;;;;;5025204;28;20599;-79
2022/10/25 00:13:03;;;;;;;8.38;1.60;;;12.20;99.90;;;;;;5023332;28;20033;-79
2022/10/25 00:15:29;;;;;;;12.82;2.03;;;12.20;99.90;;;;;;5025966;28;20086;-78
2022/10/25 00:17:54;;;;;;;7.28;2.00;;;12.10;99.90;;;;;;5023433;28;20456;-79
2022/10/25 00:20:20;;;;;;;10.85;1.83;;;12.10;99.90;;;;;;5022202;28;20060;-80
2022/10/25 00:22:46;;;;;;;10.45;1.75;;;12.20;99.90;;;;;;5023302;28;20735;-79
2022/10/25 00:25:12;;;;;;;9.02;2.00;;;12.10;99.90;;;;;;5026537;28;20029;-79
2022/10/25 00:27:37;;;;;;;13.27;2.30;;;12.10;99.90;;;;;;5022883;28;20025;-79
2022/10/25 00:30:05;;;;;;;12.00;2.30;;;12.10;99.90;;;;;;5018951;28;20034;-79
2022/10/25 00:32:32;;;;;;;18.35;4.75;;;12.00;99.90;;;;;;5025483;28;20032;-79
2022/10/25 00:34:58;;;;;;;20.15;7.95;;;12.00;99.90;;;;;;5021139;28;20021;-80
2022/10/25 00:37:24;;;;;;;15.13;5.20;;;12.00;99.90;;;;;;5025816;28;20059;-79
2022/10/25 00:39:50;;;;;;;18.08;3.80;;;12.00;99.90;;;;;;5026043;28;20036;-79
2022/10/25 00:42:21;;;;;;;8.90;2.42;;;12.00;99.90;;;;;;5025954;28;20382;-79
2022/10/25 00:44:51;;;;;;;8.48;2.00;;;12.00;99.90;;;;;;5020409;28;20039;-79
2022/10/25 00:47:19;;;;;;;15.75;2.42;;;12.00;99.90;;;;;;5020715;28;20040;-79
2022/10/25 00:49:51;;;;;;;15.63;2.38;;;12.00;99.90;;;;;;5021197;28;20029;-79
2022/10/25 00:52:17;;;;;;;13.73;2.00;;;12.00;99.90;;;;;;5019122;28;20080;-79
2022/10/25 00:54:47;;;;;;;13.10;2.20;;;12.00;99.90;;;;;;5027581;28;20014;-79
2022/10/25 00:57:18;;;;;;;16.15;2.30;;;12.00;99.90;;;;;;5028074;28;20444;-79
2022/10/25 00:59:46;;;;;;;12.48;2.50;;;11.90;99.90;;;;;;5029510;28;20468;-79
2022/10/25 01:02:13;;;;;;;13.30;2.10;;;11.90;99.90;;;;;;5025046;28;20048;-79
2022/10/25 01:04:39;;;;;;;14.38;2.08;;;11.90;99.90;;;;;;5026319;28;20052;-79
2022/10/25 01:07:05;;;;;;;9.18;1.73;;;11.90;99.90;;;;;;5022022;28;20033;-79
2022/10/25 01:09:34;;;;;;;11.02;2.00;;;12.00;99.90;;;;;;5030294;28;20106;-79
2022/10/25 01:11:59;;;;;;;9.23;2.00;;;12.00;99.90;;;;;;5026348;28;20048;-79
2022/10/25 01:14:26;;;;;;;12.20;1.85;;;12.00;99.90;;;;;;5023037;28;20036;-79
2022/10/25 01:17:13;;;;;;;10.85;2.10;;;12.00;99.90;;;;;;5020711;28;20044;-79
2022/10/25 01:20:07;;;;;;;15.32;2.40;;;11.90;99.90;;;;;;5017897;28;20052;-79
2022/10/25 01:22:53;;;;;;;17.60;2.60;;;12.00;99.90;;;;;;5025770;28;20280;-79
2022/10/25 01:25:28;;;;;;;10.98;2.42;;;12.00;99.90;;;;;;5017613;28;20033;-79
2022/10/25 01:28:15;;;;;;;15.13;1.90;;;12.00;99.90;;;;;;5028211;28;20024;-79
2022/10/25 01:30:59;;;;;;;10.52;2.13;;;12.00;99.90;;;;;;5026414;28;20623;-79
2022/10/25 01:33:42;;;;;;;9.27;2.05;;;11.90;99.90;;;;;;5021707;28;20059;-79
2022/10/25 01:36:08;;;;;;;;;;;12.00;99.90;;;;;;5022338;28;20026;-79
2022/10/25 01:39:08;;;;;;;9.63;1.70;;;11.90;99.90;;;;;;5023231;28;19909;-79
2022/10/25 01:41:42;;;;;;;18.42;2.28;;;11.90;99.90;;;;;;5020084;28;20111;-79
2022/10/25 01:44:35;;;;;;;12.18;1.77;;;11.90;99.90;;;;;;5028184;28;20024;-79
2022/10/25 01:47:30;;;;;;;11.85;2.40;;;11.90;99.90;;;;;;5027452;28;20046;-79
2022/10/25 01:50:04;;;;;;;9.75;2.10;;;11.80;99.90;;;;;;5028286;28;20029;-79
2022/10/25 01:52:30;;;;;;;10.30;2.00;;;11.80;99.90;;;;;;5027605;28;20381;-79
2022/10/25 01:54:55;;;;;;;16.10;2.72;;;11.80;99.90;;;;;;5022475;28;20029;-79
2022/10/25 01:57:36;;;;;;;8.20;2.08;;;11.80;99.90;;;;;;5029088;28;20036;-79
2022/10/25 02:00:14;;;;;;;10.32;2.33;;;11.80;99.90;;;;;;5030694;28;20111;-79
2022/10/25 02:03:07;;;;;;;10.90;2.13;;;11.80;99.90;;;;;;5026883;28;20041;-79
2022/10/25 02:06:07;;;;;;;12.67;2.07;;;11.80;99.90;;;;;;5028189;28;20140;-79
2022/10/25 02:08:40;;;;;;;8.75;2.13;;;11.70;99.90;;;;;;5036362;28;20037;-79
2022/10/25 02:11:24;;;;;;;;;;;11.80;99.90;;;;;;5028870;28;20086;-79
2022/10/25 02:14:08;;;;;;;;;;;11.80;99.90;;;;;;5026692;28;20058;-78
2022/10/25 02:16:40;;;;;;;11.30;2.03;;;11.90;99.90;;;;;;5022051;28;20372;-79
2022/10/25 02:19:11;;;;;;;16.33;2.60;;;11.80;99.90;;;;;;5028911;28;20033;-79
2022/10/25 02:21:37;;;;;;;14.85;2.60;;;11.90;99.90;;;;;;5030543;28;20030;-79
2022/10/25 02:24:11;;;;;;;14.45;2.13;;;11.90;99.90;;;;;;5029804;28;20559;-79
2022/10/25 02:26:39;;;;;;;10.05;2.13;;;11.90;99.90;;;;;;5023192;28;20037;-79
2022/10/25 02:29:07;;;;;;;11.02;1.80;;;11.90;99.90;;;;;;5025834;28;20521;-79
2022/10/25 02:31:35;;;;;;;16.02;2.45;;;11.90;99.90;;;;;;5026653;28;20395;-79
2022/10/25 02:34:00;;;;;;;11.52;2.30;;;11.90;99.90;;;;;;5028071;28;20021;-79
2022/10/25 02:36:26;;;;;;;12.85;2.28;;;11.90;99.90;;;;;;5021901;28;20025;-79
2022/10/25 02:38:52;;;;;;;10.52;2.40;;;12.00;99.90;;;;;;5026795;28;20025;-79
2022/10/25 02:41:20;;;;;;;10.40;2.28;;;12.00;99.90;;;;;;5026739;28;20437;-79
2022/10/25 02:43:46;;;;;;;10.68;2.25;;;12.00;99.90;;;;;;5030556;28;20037;-79
2022/10/25 02:46:16;;;;;;;13.45;2.15;;;12.00;99.90;;;;;;5035379;28;20087;-79
2022/10/25 02:48:42;;;;;;;9.25;2.33;;;11.90;99.90;;;;;;5031228;28;20595;-79
2022/10/25 02:51:09;;;;;;;10.18;2.55;;;11.90;99.90;;;;;;5031449;28;20029;-79
2022/10/25 02:53:35;;;;;;;12.77;2.63;;;11.90;99.90;;;;;;5019981;28;20037;-79
2022/10/25 02:56:06;;;;;;;6.45;1.83;;;11.90;99.90;;;;;;5029207;28;20021;-79
2022/10/25 02:58:34;;;;;;;10.75;2.28;;;11.90;99.90;;;;;;5028836;28;20576;-79
2022/10/25 03:01:00;;;;;;;9.85;1.90;;;11.80;99.90;;;;;;5031060;28;20029;-79
2022/10/25 03:03:27;;;;;;;10.60;2.20;;;11.80;99.90;;;;;;5028725;28;20095;-79
2022/10/25 03:05:53;;;;;;;9.32;2.03;;;11.80;99.90;;;;;;5021148;28;20029;-79
2022/10/25 03:08:19;;;;;;;7.72;1.92;;;11.80;99.90;;;;;;5027542;28;20025;-79
2022/10/25 03:10:44;;;;;;;12.00;2.33;;;11.80;99.90;;;;;;5033218;28;20032;-79
2022/10/25 03:13:10;;;;;;;12.65;2.50;;;11.70;99.90;;;;;;5023725;28;20021;-78
2022/10/25 03:15:36;;;;;;;9.32;2.20;;;11.70;99.90;;;;;;5024527;28;20036;-80
2022/10/25 03:18:01;;;;;;;6.03;2.13;;;11.70;99.90;;;;;;5030032;28;20091;-79
2022/10/25 03:20:27;;;;;;;10.95;2.25;;;11.70;99.90;;;;;;5027257;28;20060;-78
2022/10/25 03:22:53;;;;;;;14.30;2.42;;;11.70;99.90;;;;;;5030863;28;20192;-78
2022/10/25 03:25:19;;;;;;;13.63;2.15;;;11.70;99.90;;;;;;5024120;28;20068;-79
2022/10/25 03:27:44;;;;;;;15.40;2.33;;;11.70;99.90;;;;;;5024577;28;20327;-79
2022/10/25 03:30:12;;;;;;;10.45;2.78;;;11.70;99.90;;;;;;5027780;28;20087;-79
2022/10/25 03:32:38;;;;;;;11.60;2.70;;;11.70;99.90;;;;;;5027012;28;20044;-79
2022/10/25 03:35:04;;;;;;;12.10;2.55;;;11.70;99.90;;;;;;5015165;28;20524;-77
2022/10/25 03:37:29;;;;;;;8.98;2.70;;;11.80;99.90;;;;;;5025499;28;20056;-78
2022/10/25 03:39:55;;;;;;;11.95;2.42;;;11.80;99.90;;;;;;5020974;28;20029;-78
2022/10/25 03:42:21;;;;;;;14.02;2.85;;;11.80;99.90;;;;;;5022010;28;20102;-79
2022/10/25 03:44:47;;;;;;;16.88;3.40;;;11.80;99.90;;;;;;5024068;28;20390;-79
2022/10/25 03:47:12;;;;;;;12.50;2.83;;;11.80;99.90;;;;;;5025014;28;20033;-79
2022/10/25 03:49:38;;;;;;;8.27;2.83;;;11.80;99.90;;;;;;5021102;28;21244;-79
2022/10/25 03:52:06;;;;;;;8.27;2.60;;;11.80;99.90;;;;;;5024109;28;20617;-78
2022/10/25 03:54:32;;;;;;;9.25;2.70;;;11.80;99.90;;;;;;5026445;28;20025;-79
2022/10/25 03:56:57;;;;;;;11.18;2.92;;;11.80;99.90;;;;;;5028361;28;20555;-79
2022/10/25 03:59:23;;;;;;;10.60;3.00;;;11.80;99.90;;;;;;5024115;28;20021;-78
2022/10/25 04:01:49;;;;;;;8.43;3.05;;;11.80;99.90;;;;;;5024160;28;20537;-79
2022/10/25 04:04:14;;;;;;;10.80;2.75;;;11.90;99.90;;;;;;5023519;28;20548;-79
2022/10/25 04:06:40;;;;;;;8.13;2.83;;;11.90;99.90;;;;;;5022449;28;20036;-79
2022/10/25 04:09:06;;;;;;;10.75;3.28;;;11.90;99.90;;;;;;5027756;28;20039;-79
2022/10/25 04:11:32;;;;;;;10.20;2.45;;;11.80;99.90;;;;;;5028072;28;20036;-79
2022/10/25 04:13:57;;;;;;;9.23;2.30;;;11.80;99.90;;;;;;5021476;28;20547;-78
2022/10/25 04:16:24;;;;;;;11.68;2.95;;;11.90;99.90;;;;;;5020502;28;20029;-78
2022/10/25 04:18:52;;;;;;;11.55;2.47;;;11.90;99.90;;;;;;5021664;28;20025;-78
2022/10/25 04:21:18;;;;;;;8.45;2.60;;;11.90;99.90;;;;;;5024432;28;20021;-78
2022/10/25 04:23:44;;;;;;;8.88;2.47;;;11.90;99.90;;;;;;5030006;28;20079;-78
2022/10/25 04:26:09;;;;;;;15.27;3.13;;;11.90;99.90;;;;;;5024673;28;20025;-79
2022/10/25 04:28:35;;;;;;;11.40;2.63;;;11.90;99.90;;;;;;5026218;28;20075;-78
2022/10/25 04:31:02;;;;;;;12.10;2.50;;;11.90;99.90;;;;;;5028459;28;20172;-79
2022/10/25 04:33:27;;;;;;;13.98;2.80;;;11.90;99.90;;;;;;5027332;28;20025;-78
2022/10/25 04:35:56;;;;;;;11.18;2.40;;;11.90;99.90;;;;;;5031054;28;20032;-78
2022/10/25 04:38:23;;;;;;;9.75;2.17;;;11.90;99.90;;;;;;5028585;28;20559;-78
2022/10/25 04:40:55;;;;;;;10.18;2.40;;;11.90;99.90;;;;;;5028056;28;20033;-79
2022/10/25 04:43:22;;;;;;;18.75;2.65;;;11.90;99.90;;;;;;5024383;28;20057;-78
2022/10/25 04:45:48;;;;;;;5.75;2.03;;;11.80;99.90;;;;;;5029412;28;20034;-78
2022/10/25 04:48:14;;;;;;;24.80;2.58;;;11.80;99.90;;;;;;5026446;28;20033;-78
2022/10/25 04:50:40;;;;;;;10.07;2.47;;;11.80;99.90;;;;;;5031428;28;20041;-78
2022/10/25 04:53:06;;;;;;;11.32;2.65;;;11.80;99.90;;;;;;5025888;28;20033;-78
2022/10/25 04:55:32;;;;;;;8.73;2.47;;;11.80;99.90;;;;;;5023968;28;20112;-78
2022/10/25 04:57:57;;;;;;;9.95;2.58;;;11.80;99.90;;;;;;5029153;28;20057;-79
2022/10/25 05:00:23;;;;;;;10.50;2.80;;;11.70;99.90;;;;;;5026491;28;20044;-79
2022/10/25 05:02:53;;;;;;;6.78;2.35;;;11.70;99.90;;;;;;5019078;28;20036;-79
2022/10/25 05:05:20;;;;;;;12.07;2.40;;;11.70;99.90;;;;;;5018977;28;20029;-79
2022/10/25 05:07:46;;;;;;;12.63;2.85;;;11.70;99.90;;;;;;5023643;28;20120;-79
2022/10/25 05:10:11;;;;;;;9.90;2.78;;;11.70;99.90;;;;;;5028557;28;20040;-78
2022/10/25 05:12:38;;;;;;;8.27;2.97;;;11.70;99.90;;;;;;5025879;28;20024;-79
2022/10/25 05:15:05;;;;;;;12.40;3.15;;;11.70;99.90;;;;;;5023947;28;20506;-79
2022/10/25 05:17:30;;;;;;;8.35;2.30;;;11.70;99.90;;;;;;5029208;28;20026;-78
2022/10/25 05:19:56;;;;;;;10.07;2.40;;;11.70;99.90;;;;;;5026863;28;20033;-79
2022/10/25 05:22:22;;;;;;;10.23;2.45;;;11.70;99.90;;;;;;5023132;28;20033;-79
2022/10/25 05:24:47;;;;;;;11.23;2.75;;;11.70;99.90;;;;;;5025263;28;20036;-79
2022/10/25 05:27:13;;;;;;;17.60;2.72;;;11.70;99.90;;;;;;5032378;28;20048;-79
2022/10/25 05:29:39;;;;;;;14.20;2.70;;;11.80;99.90;;;;;;5037446;28;20049;-78
2022/10/25 05:32:04;;;;;;;12.95;2.75;;;11.80;99.90;;;;;;5027785;28;20076;-79
2022/10/25 05:34:30;;;;;;;10.18;2.83;;;11.80;99.90;;;;;;5027558;28;20473;-79
2022/10/25 05:36:57;;;;;;;14.15;2.55;;;11.70;99.90;;;;;;5027460;28;20025;-79
2022/10/25 05:39:23;;;;;;;11.02;2.67;;;11.70;99.90;;;;;;5032474;28;20032;-79
2022/10/25 05:41:49;;;;;;;10.55;2.53;;;11.70;99.90;;;;;;5030043;28;20041;-79
2022/10/25 05:44:15;;;;;;;8.20;2.35;;;11.70;99.90;;;;;;5020051;28;20671;-79
2022/10/25 05:46:42;;;;;;;9.98;2.35;;;11.70;99.90;;;;;;5025998;28;20025;-79
2022/10/25 05:49:08;;;;;;;7.95;2.50;;;11.70;99.90;;;;;;5023555;28;20029;-79
2022/10/25 05:51:35;;;;;;;7.72;2.40;;;11.70;99.90;;;;;;5030115;28;20029;-79
2022/10/25 05:54:06;;;;;;;7.45;2.33;;;11.70;99.90;;;;;;5041309;28;20410;-79
2022/10/25 05:56:32;;;;;;;12.70;2.70;;;11.60;99.90;;;;;;5042105;28;20545;-79
2022/10/25 05:59:02;;;;;;;12.48;2.63;;;11.60;99.90;;;;;;5042763;28;20036;-79
2022/10/25 06:01:28;;;;;;;11.50;2.20;;;11.60;99.90;;;;;;5027632;28;20048;-79
2022/10/25 06:03:55;;;;;;;10.15;2.42;;;11.60;99.90;;;;;;5032125;28;20025;-79
2022/10/25 06:06:22;;;;;;;9.73;2.85;;;11.60;99.90;;;;;;5031348;28;20021;-79
2022/10/25 06:08:48;;;;;;;10.35;2.83;;;11.50;99.90;;;;;;5029511;28;20029;-79
2022/10/25 06:11:16;;;;;;;10.88;2.75;;;11.60;99.90;;;;;;5029443;28;20037;-79
2022/10/25 06:13:42;;;;;;;10.52;2.92;;;11.60;99.90;;;;;;5035236;28;20285;-80
2022/10/25 06:16:11;;;;;;;10.23;2.60;;;11.60;99.90;;;;;;5039692;28;20033;-80
2022/10/25 06:18:37;;;;;;;15.70;3.55;;;11.60;99.90;;;;;;5037356;28;20041;-79
2022/10/25 06:21:08;;;;;;;9.95;2.88;;;11.60;99.90;;;;;;5032542;28;20080;-79
2022/10/25 06:23:37;;;;;;;12.52;2.78;;;11.70;99.90;;;;;;5027334;28;20615;-79
2022/10/25 06:26:12;;;;;;;12.00;2.88;;;11.70;99.90;;;;;;5032948;28;20539;-79
2022/10/25 06:28:38;;;;;;;12.95;3.80;;;11.70;99.90;;;;;;5028536;28;20033;-80
2022/10/25 06:31:12;;;;;;;10.40;2.67;;;11.70;99.90;;;;;;5033685;28;20064;-80
2022/10/25 06:33:39;;;;;;;12.90;3.33;;;11.70;99.90;;;;;;5032791;28;20059;-80
2022/10/25 06:36:07;;;;;;;12.68;2.97;;;11.80;99.90;;;;;;5045153;28;20104;-79
2022/10/25 06:38:33;;;;;;;7.85;3.28;;;11.80;99.90;;;;;;5028513;28;20511;-79
2022/10/25 06:41:05;;;;;;;6.75;3.17;;;11.80;99.90;;;;;;5037594;28;20432;-79
2022/10/25 06:43:31;;;;;;;7.97;3.40;;;11.90;99.90;;;;;;5033017;28;20437;-79
2022/10/25 06:45:57;;;;;;;10.52;3.05;;;11.90;99.90;;;;;;5035001;28;20036;-79
2022/10/25 06:48:23;;;;;;;8.77;3.30;;;12.00;99.90;;;;;;5043542;28;20025;-79
2022/10/25 06:51:08;;;;;;;12.48;3.35;;;12.00;99.90;;;;;;5040463;28;20029;-80
2022/10/25 06:53:34;;;;;;;17.05;3.10;;;12.00;99.90;;;;;;5032628;28;20037;-80
2022/10/25 06:56:01;;;;;;;10.10;3.33;;;12.10;99.90;;;;;;5037366;28;20161;-80
2022/10/25 06:58:29;;;;;;;19.02;4.45;;;12.10;99.90;;;;;;5033236;28;20055;-80
2022/10/25 07:00:58;;;;;;;16.45;3.88;;;12.10;99.90;;;;;;5034587;28;20026;-81
2022/10/25 07:03:29;;;;;;;13.27;4.32;;;12.10;99.90;;;;;;5032480;28;20025;-75
2022/10/25 07:05:58;;;;;;;12.38;6.70;;;12.10;99.90;;;;;;5031617;28;20025;-74
2022/10/25 07:08:24;;;;;;;13.40;5.38;;;12.00;99.90;;;;;;5037852;28;20064;-74
2022/10/25 07:10:56;;;;;;;7.05;4.18;;;12.00;99.90;;;;;;5031206;28;20056;-74
2022/10/25 07:13:22;;;;;;;17.35;5.45;;;12.00;99.90;;;;;;5032546;28;20033;-74
2022/10/25 07:15:47;;;;;;;15.23;5.28;;;12.00;99.90;;;;;;5038698;28;20385;-75
2022/10/25 07:18:13;;;;;;;13.65;6.22;;;12.00;99.90;;;;;;5032343;28;20032;-75
2022/10/25 07:20:39;;;;;;;10.88;5.82;;;12.00;99.90;;;;;;5036519;28;20028;-74
2022/10/25 07:23:04;;;;;;;11.07;5.18;;;12.00;99.90;;;;;;5029281;28;20776;-75
2022/10/25 07:25:30;;;;;;;9.73;5.05;;;12.00;99.90;;;;;;5039334;28;20048;-74
2022/10/25 07:27:56;;;;;;;12.55;4.15;;;12.00;99.90;;;;;;5033414;28;20033;-74
2022/10/25 07:30:21;;;;;;;12.07;4.03;;;12.10;99.90;;;;;;5036889;28;20116;-74
2022/10/25 07:32:47;;;;;;;8.80;4.25;;;12.20;99.90;;;;;;5031094;28;20056;-74
2022/10/25 07:35:13;;;;;;;10.20;3.95;;;12.20;99.90;;;;;;5030164;28;20035;-74
2022/10/25 07:37:38;;;;;;;13.50;3.90;;;12.30;99.90;;;;;;5034115;28;20063;-75
2022/10/25 07:40:05;;;;;;;11.98;4.07;;;12.30;99.90;;;;;;5030581;28;20048;-74
2022/10/25 07:42:30;;;;;;;15.60;3.83;;;12.40;99.90;;;;;;5043625;28;20099;-74
2022/10/25 07:44:56;;;;;;;10.90;3.97;;;12.40;99.90;;;;;;5035241;28;20565;-74
2022/10/25 07:47:21;;;;;;;8.00;3.53;;;12.50;99.90;;;;;;5029887;28;20517;-74
2022/10/25 07:49:47;;;;;;;13.43;3.58;;;12.50;99.90;;;;;;5031848;28;20070;-74
2022/10/25 07:52:13;;;;;;;13.07;3.30;;;12.50;99.90;;;;;;5038846;28;20021;-75
2022/10/25 07:54:38;;;;;;;11.95;3.70;;;12.60;99.90;;;;;;5038854;28;20053;-74
2022/10/25 07:57:05;;;;;;;11.98;3.70;;;12.60;99.90;;;;;;5038383;28;20017;-74
2022/10/25 07:59:31;;;;;;;13.30;3.25;;;12.60;99.90;;;;;;5026688;28;20029;-74
2022/10/25 08:01:57;;;;;;;9.75;3.40;;;12.60;99.90;;;;;;5027631;28;20045;-75
2022/10/25 08:04:22;;;;;;;8.05;3.83;;;12.60;99.90;;;;;;5029509;28;20018;-75
2022/10/25 08:06:48;;;;;;;10.68;3.10;;;12.60;99.90;;;;;;5036857;28;20149;-75
2022/10/25 08:09:14;;;;;;;7.28;2.90;;;12.60;99.90;;;;;;5031556;28;20033;-75
2022/10/25 08:11:39;;;;;;;10.90;3.55;;;12.70;99.90;;;;;;5035509;28;20032;-74
2022/10/25 08:14:05;;;;;;;8.35;3.20;;;12.70;99.90;;;;;;5027664;28;20025;-75
2022/10/25 08:16:31;;;;;;;14.55;3.20;;;12.70;99.90;;;;;;5033326;28;20021;-75
2022/10/25 08:18:56;;;;;;;6.95;3.13;;;12.70;99.90;;;;;;5032387;28;20057;-75
2022/10/25 08:21:22;;;;;;;15.05;3.63;;;12.80;99.90;;;;;;5038433;28;20067;-75
2022/10/25 08:23:48;;;;;;;10.45;2.80;;;12.80;99.90;;;;;;5026580;28;20110;-75
2022/10/25 08:26:13;;;;;;;12.30;3.10;;;13.00;99.90;;;;;;5036785;28;20060;-75
2022/10/25 08:28:39;;;;;;;6.55;2.85;;;13.10;99.90;;;;;;5040718;28;20104;-74
2022/10/25 08:31:05;;;;;;;7.15;2.47;;;13.10;99.90;;;;;;5033982;28;20444;-75
2022/10/25 08:33:31;;;;;;;13.65;3.00;;;13.10;99.90;;;;;;5031729;28;20354;-75
2022/10/25 08:36:03;;;;;;;14.48;3.00;;;13.10;99.90;;;;;;5029365;28;20048;-75
2022/10/25 08:38:29;;;;;;;6.65;2.50;;;13.00;99.90;;;;;;5025597;28;20049;-75
2022/10/25 08:41:18;;;;;;;8.52;2.80;;;13.00;99.90;;;;;;5034241;28;20085;-75
2022/10/25 08:44:03;;;;;;;11.50;3.15;;;13.00;99.90;;;;;;5031948;28;20108;-75
2022/10/25 08:46:35;;;;;;;10.25;2.72;;;13.10;99.90;;;;;;5038487;28;20028;-75
2022/10/25 08:49:13;;;;;;;9.52;2.72;;;13.10;99.90;;;;;;5040734;28;20044;-74
2022/10/25 08:51:43;;;;;;;15.02;2.97;;;13.30;99.90;;;;;;5024776;28;20138;-74
2022/10/25 08:54:32;;;;;;;13.18;3.55;;;13.30;99.90;;;;;;5024892;28;20040;-74
2022/10/25 08:57:05;;;;;;;10.20;3.13;;;13.40;99.90;;;;;;5039861;28;20037;-74
2022/10/25 08:59:34;;;;;;;14.45;3.25;;;13.50;99.90;;;;;;5034341;28;20497;-74
2022/10/25 09:02:00;;;;;;;8.65;2.35;;;13.60;99.90;;;;;;5025461;28;20042;-74
2022/10/25 09:04:28;;;;;;;9.13;2.70;;;13.70;99.90;;;;;;5024197;28;20025;-74
2022/10/25 09:06:53;;;;;;;15.65;3.65;;;13.80;99.90;;;;;;5030748;28;20029;-74
2022/10/25 09:09:28;;;;;;;8.85;2.50;;;13.80;99.90;;;;;;5031381;28;20035;-74
2022/10/25 09:11:53;;;;;;;8.70;2.00;;;13.90;99.90;;;;;;5043921;28;20735;-74
2022/10/25 09:14:31;;;;;;;11.63;2.67;;;13.90;99.90;;;;;;5029337;28;20068;-74
2022/10/25 09:17:17;;;;;;;9.90;2.22;;;13.90;99.90;;;;;;5026644;28;20101;-75
2022/10/25 09:20:02;;;;;;;10.57;2.17;;;13.90;99.90;;;;;;5022891;28;20036;-75
2022/10/25 09:22:50;;;;;;;9.07;2.65;;;13.90;99.90;;;;;;5033776;28;20025;-75
2022/10/25 09:25:29;;;;;;;10.70;2.50;;;13.90;99.90;;;;;;5029045;28;20298;-75
2022/10/25 09:28:02;;;;;;;15.93;3.20;;;13.90;99.90;;;;;;5033729;28;20120;-75
2022/10/25 09:30:36;;;;;;;;;;;14.00;99.90;;;;;;5039965;28;20498;-75
2022/10/25 09:33:05;;;;;;;;;;;14.10;99.90;;;;;;5025884;28;19905;-75
2022/10/25 09:35:45;;;;;;;8.05;2.53;;;14.10;99.90;;;;;;5029373;28;20002;-75
2022/10/25 09:38:25;;;;;;;8.38;2.78;;;14.10;99.90;;;;;;5026090;28;20485;-75
2022/10/25 09:41:00;;;;;;;8.75;2.60;;;14.10;99.90;;;;;;5029024;28;20429;-75
2022/10/25 09:44:08;;;;;;;8.85;1.83;;;14.30;99.90;;;;;;5039594;28;20501;-75
2022/10/25 09:46:36;;;;;;;6.15;1.80;;;14.50;99.90;;;;;;5024212;28;20029;-75
2022/10/25 09:49:14;;;;;;;7.18;1.73;;;14.50;99.90;;;;;;5031188;28;20021;-75
2022/10/25 09:52:06;;;;;;;9.18;1.92;;;14.50;99.90;;;;;;5033115;28;20425;-75
2022/10/25 09:54:38;;;;;;;7.57;2.10;;;14.60;99.90;;;;;;5025833;28;20671;-74
2022/10/25 09:57:04;;;;;;;4.87;1.60;;;14.80;99.90;;;;;;5037294;28;20072;-74
2022/10/25 09:59:30;;;;;;;13.60;2.03;;;14.90;99.90;;;;;;5030090;28;20736;-74
2022/10/25 10:01:55;;;;;;;8.15;1.50;;;15.00;99.90;;;;;;5039320;28;20256;-74
2022/10/25 10:04:35;;;;;;;7.80;1.52;;;15.20;99.90;;;;;;5036118;28;20489;-74
2022/10/25 10:07:26;;;;;;;13.15;2.25;;;15.20;99.90;;;;;;5033020;28;20459;-73
2022/10/25 10:09:56;;;;;;;6.57;1.42;;;15.20;99.90;;;;;;5034288;28;20065;-74
2022/10/25 10:12:29;;;;;;;6.35;1.38;;;15.10;99.90;;;;;;5038699;28;20111;-74
2022/10/25 10:15:01;;;;;;;10.70;1.63;;;15.10;99.90;;;;;;5025839;28;20047;-74
2022/10/25 10:17:29;;;;;;;8.75;1.48;;;15.00;99.90;;;;;;5032779;28;20021;-74
2022/10/25 10:20:16;;;;;;;9.20;1.98;;;14.90;99.90;;;;;;5040827;28;20037;-74
2022/10/25 10:22:50;;;;;;;7.18;1.40;;;14.80;99.90;;;;;;5028784;28;20033;-74
2022/10/25 10:25:24;;;;;;;5.95;1.33;;;14.80;99.90;;;;;;5023580;28;20029;-74
2022/10/25 10:27:53;;;;;;;7.72;1.42;;;14.90;99.90;;;;;;5029198;28;20613;-74
2022/10/25 10:30:24;;;;;;;6.95;1.30;;;15.00;99.90;;;;;;5023409;28;20046;-73
2022/10/25 10:32:56;;;;;;;6.75;1.35;;;15.00;99.90;;;;;;5039141;28;20055;-74
2022/10/25 10:35:33;;;;;;;10.35;1.85;;;15.00;99.90;;;;;;5028017;28;20036;-74
2022/10/25 10:38:25;;;;;;;12.10;1.38;;;15.00;99.90;;;;;;5040488;28;20089;-75
2022/10/25 10:41:13;;;;;;;4.70;1.25;;;14.90;99.90;;;;;;5027243;28;20033;-74
2022/10/25 10:43:39;;;;;;;9.50;1.67;;;14.90;99.90;;;;;;5043295;28;20047;-74
2022/10/25 10:46:12;;;;;;;10.13;1.73;;;14.80;99.90;;;;;;5028559;28;20040;-74
2022/10/25 10:48:43;;;;;;;5.55;1.58;;;14.80;99.90;;;;;;5036030;28;20028;-75
2022/10/25 10:51:20;;;;;;;6.68;1.50;;;14.80;99.90;;;;;;5032703;28;20037;-75
2022/10/25 10:53:46;;;;;;;9.05;1.60;;;14.60;99.90;;;;;;5026326;28;20383;-74
2022/10/25 10:56:20;;;;;;;6.43;1.50;;;14.60;99.90;;;;;;5035519;28;20029;-74
2022/10/25 10:58:50;;;;;;;9.55;1.95;;;14.50;99.90;;;;;;4691101;28;10001144;-75
2022/10/25 11:01:34;;;;;;;4.32;0.93;;;14.50;99.90;;;;;;5024626;28;20083;-75
2022/10/25 11:04:00;;;;;;;7.43;1.50;;;14.50;99.90;;;;;;5030997;28;20033;-75
2022/10/25 11:06:34;;;;;;;7.97;1.38;;;14.50;99.90;;;;;;5027768;28;20352;-75
2022/10/25 11:09:18;;;;;;;6.65;1.30;;;14.60;99.90;;;;;;5034261;28;20056;-74
2022/10/25 11:12:01;;;;;;;8.55;1.85;;;14.60;99.90;;;;;;5033535;28;20075;-74
2022/10/25 11:14:27;;;;;;;6.47;1.10;;;14.80;99.90;;;;;;5026726;28;20075;-74
2022/10/25 11:17:18;;;;;;;7.28;1.25;;;14.90;99.90;;;;;;5029195;28;20030;-73
2022/10/25 11:20:08;;;;;;;6.68;1.17;;;15.00;99.90;;;;;;5033340;28;20540;-74
2022/10/25 11:22:44;;;;;;;6.63;1.08;;;15.10;99.90;;;;;;5030609;28;20029;-74
2022/10/25 11:25:34;;;;;;;6.50;1.13;;;15.20;99.90;;;;;;5024707;28;20300;-74
2022/10/25 11:28:24;;;;;;;7.93;1.30;;;15.20;99.90;;;;;;5031895;28;20025;-74
2022/10/25 11:31:04;;;;;;;6.25;2.65;;;15.30;99.90;;;;;;5024963;28;20099;-74
2022/10/25 11:34:02;;;;;;;8.77;1.42;;;15.30;99.90;;;;;;5026262;28;20029;-74
2022/10/25 11:36:41;;;;;;;6.70;3.40;;;15.50;99.90;;;;;;5029709;28;20510;-75
2022/10/25 11:39:18;;;;;;;8.65;1.80;;;15.60;99.90;;;;;;5023156;28;20136;-75
2022/10/25 11:41:50;;;;;;;8.68;1.70;;;15.70;99.90;;;;;;5029527;28;20555;-75
2022/10/25 11:44:40;;;;;;;5.65;1.50;;;15.90;99.90;;;;;;5021285;28;20030;-75
2022/10/25 11:47:24;;;;;;;5.47;1.38;;;16.00;99.90;;;;;;5029424;28;20549;-75
2022/10/25 11:50:02;;;;;;;9.35;1.60;;;16.00;99.90;;;;;;5026505;28;20470;-75
2022/10/25 11:52:31;;;;;;;6.82;1.40;;;15.90;99.90;;;;;;5022751;28;20025;-75
2022/10/25 11:55:11;;;;;;;9.50;1.65;;;15.90;99.90;;;;;;5019084;28;20021;-75
2022/10/25 11:58:00;;;;;;;6.18;1.65;;;15.90;99.90;;;;;;5034578;28;20040;-75
2022/10/25 12:00:46;;;;;;;6.07;1.50;;;15.90;99.90;;;;;;5029882;28;20033;-76
2022/10/25 12:03:50;;;;;;;10.40;2.70;;;15.90;99.90;;;;;;5022167;28;20397;-76
2022/10/25 12:06:46;;;;;;;13.07;5.68;;;16.00;99.90;;;;;;5022404;28;20029;-76
2022/10/25 12:09:12;;;;;;;5.05;1.42;;;15.90;99.90;;;;;;5027098;28;20037;-76
2022/10/25 12:11:46;;;;;;;4.68;1.10;;;15.90;99.90;;;;;;5024005;28;20074;-76
2022/10/25 12:14:18;;;;;;;5.85;1.10;;;15.90;99.90;;;;;;5026231;28;20089;-76
2022/10/25 12:16:45;;;;;;;4.25;1.10;;;15.80;99.90;;;;;;5030976;28;20301;-76
2022/10/25 12:19:21;;;;;;;5.63;1.17;;;15.80;99.90;;;;;;5028374;28;20073;-76
2022/10/25 12:21:57;;;;;;;4.45;1.80;;;15.80;99.90;;;;;;5013824;28;20328;-76
2022/10/25 12:24:30;;;;;;;7.32;1.13;;;15.80;99.90;;;;;;5017669;28;20028;-76
2022/10/25 12:26:57;;;;;;;5.32;1.38;;;15.80;99.90;;;;;;5025871;28;20033;-76
2022/10/25 12:29:36;;;;;;;8.38;1.70;;;15.80;99.90;;;;;;5024579;28;20048;-75
2022/10/25 12:32:07;;;;;;;9.55;2.47;;;15.80;99.90;;;;;;5021413;28;20034;-76
2022/10/25 12:34:43;;;;;;;9.02;2.13;;;15.80;99.90;;;;;;5021073;28;20549;-75
2022/10/25 12:37:24;;;;;;;8.05;2.25;;;15.80;99.90;;;;;;5020794;28;20498;-74
2022/10/25 12:39:51;;;;;;;4.53;1.38;;;15.80;99.90;;;;;;5020088;28;20489;-74
2022/10/25 12:42:21;;;;;;;6.30;1.50;;;15.90;99.90;;;;;;5024821;28;20035;-75
2022/10/25 12:44:56;;;;;;;5.05;1.30;;;15.80;99.90;;;;;;5025346;28;20044;-75
2022/10/25 12:47:56;;;;;;;6.88;1.42;;;15.90;99.90;;;;;;5023368;28;20036;-75
2022/10/25 12:50:40;;;;;;;4.45;0.73;;;15.90;99.90;;;;;;5032545;28;20025;-77
2022/10/25 12:53:30;;;;;;;5.47;0.95;;;16.00;99.90;;;;;;5022350;28;20029;-80
2022/10/25 12:56:28;;;;;;;2.55;0.60;;;16.10;99.90;;;;;;5018492;28;20029;-78
2022/10/25 12:58:56;;;;;;;3.88;0.88;;;16.30;99.90;;;;;;5024103;28;20243;-80
2022/10/25 13:02:07;;;;;;;7.22;1.20;;;16.40;99.90;;;;;;5029315;28;20497;-76
2022/10/25 13:04:48;;;;;;;3.42;0.70;;;16.50;99.90;;;;;;5028213;28;20431;-77